Fugaku Maru — JH3428 — position and weather

sailwx.info

Track history (hours):
 
Tides and Currents Weather Stations Pressure Air Temp Water Temp Dewpoint Dewpoint Depression Visibility Wind Speed Wind Dir Waves Ship Positions

Fugaku Maru

Last reported at 2016-May-29 00:15 UTC. Time now 2016-May-29 03:53 UTC.
Position N 34°29' E 138°21'.

Length 165 m; draft 7.2 m.

Type: Cargo ship. MMSI: 431200176.

Date/timePositionNaut miles runAvg speedWind from/ knotsBaromVisibWave heightAir tempDewpointWater temp
2016-May-29 00:15N 34°29' E 138°21'3620.8
2016-May-28 22:32N 34°30' E 139°04'2020.5
2016-May-28 21:33N 34°39' E 139°26'2020.3
2016-May-28 20:33N 34°46' E 139°49'2019.8
2016-May-28 19:33N 34°56' E 140°10'1918.7
2016-May-28 18:33N 35°06' E 140°30'1816.8
2016-May-28 17:30N 35°20' E 140°43'1818.9
2016-May-28 16:33N 35°35' E 140°55'2120.1
2016-May-28 15:31N 35°54' E 141°04'2020.6
2016-May-28 14:33N 36°14' E 141°08'2120.6
2016-May-28 13:33N 36°34' E 141°13'2020.2
2016-May-28 12:33N 36°54' E 141°18'  
2016-May-25 22:30N 35°43' E 140°56'1920.6
2016-May-25 21:33N 35°26' E 140°45'2421.6
2016-May-25 20:28N 35°07' E 140°28'2022.1
2016-May-25 19:33N 34°54' E 140°09'2121.5
2016-May-25 18:34N 34°44' E 139°46'73 3.8
2016-May-24 23:25N 34°31' E 138°19'3920.8
2016-May-24 21:33N 34°33' E 139°06'2320.7
2016-May-24 20:25N 34°38' E 139°34'1720.2
2016-May-24 19:33N 34°48' E 139°52'1919.3
2016-May-24 18:34N 34°57' E 140°12'1818.0
2016-May-24 17:33N 35°08' E 140°30'1919.0
2016-May-24 16:33N 35°23' E 140°43'2120.1
2016-May-24 15:32N 35°41' E 140°57'2020.2
2016-May-24 14:33N 35°59' E 141°05'2120.8
2016-May-24 13:34N 36°20' E 141°10'2120.6
2016-May-24 12:33N 36°40' E 141°16'2121.1
2016-May-24 11:34N 37°00' E 141°21'2121.1
2016-May-24 10:33N 37°21' E 141°27'  
2016-May-22 02:23N 36°38' E 141°04'1719.1
2016-May-22 01:30N 36°22' E 141°02'3819.2
2016-May-21 23:32N 35°44' E 140°57'1918.6
2016-May-21 22:32N 35°28' E 140°47'1919.2
2016-May-21 21:34N 35°12' E 140°33'2020.1
2016-May-21 20:33N 34°58' E 140°16'2019.9
2016-May-21 19:33N 34°47' E 139°56'2120.0
2016-May-21 18:31N 34°39' E 139°32'4920.2
2016-May-21 16:07N 34°29' E 138°35'26 1.4
2016-May-20 21:28N 34°32' E 139°06'1920.4
2016-May-20 20:33N 34°38' E 139°28'2120.5
2016-May-20 19:33N 34°47' E 139°51'2020.0
2016-May-20 18:33N 34°57' E 140°12'2019.1
2016-May-20 17:29N 35°09' E 140°32'2020.7
2016-May-20 16:31N 35°26' E 140°45'2121.4
2016-May-20 15:33N 35°43' E 140°59'2321.4
2016-May-20 14:30N 36°05' E 141°05'2720.7
2016-May-20 13:13N 36°31' E 141°10'1520.7
2016-May-20 12:29N 36°46' E 141°15'  
Track history (hours):
 
Tides and Currents Weather Stations Pressure Air Temp Water Temp Dewpoint Dewpoint Depression Visibility Wind Speed Wind Dir Waves Ship Positions

Fugaku Maru

Last reported at 2016-May-29 00:15 UTC. Time now 2016-May-29 03:53 UTC.
Position N 34°29' E 138°21'.

Length 165 m; draft 7.2 m.

Type: Cargo ship. MMSI: 431200176.

Date/timePositionNaut miles runAvg speedWind from/ knotsBaromVisibWave heightAir tempDewpointWater temp
2016-May-29 00:15N 34°29' E 138°21'3620.8
2016-May-28 22:32N 34°30' E 139°04'2020.5
2016-May-28 21:33N 34°39' E 139°26'2020.3
2016-May-28 20:33N 34°46' E 139°49'2019.8
2016-May-28 19:33N 34°56' E 140°10'1918.7
2016-May-28 18:33N 35°06' E 140°30'1816.8
2016-May-28 17:30N 35°20' E 140°43'1818.9
2016-May-28 16:33N 35°35' E 140°55'2120.1
2016-May-28 15:31N 35°54' E 141°04'2020.6
2016-May-28 14:33N 36°14' E 141°08'2120.6
2016-May-28 13:33N 36°34' E 141°13'2020.2
2016-May-28 12:33N 36°54' E 141°18'  
2016-May-25 22:30N 35°43' E 140°56'1920.6
2016-May-25 21:33N 35°26' E 140°45'2421.6
2016-May-25 20:28N 35°07' E 140°28'2022.1
2016-May-25 19:33N 34°54' E 140°09'2121.5
2016-May-25 18:34N 34°44' E 139°46'73 3.8
2016-May-24 23:25N 34°31' E 138°19'3920.8
2016-May-24 21:33N 34°33' E 139°06'2320.7
2016-May-24 20:25N 34°38' E 139°34'1720.2
2016-May-24 19:33N 34°48' E 139°52'1919.3
2016-May-24 18:34N 34°57' E 140°12'1818.0
2016-May-24 17:33N 35°08' E 140°30'1919.0
2016-May-24 16:33N 35°23' E 140°43'2120.1
2016-May-24 15:32N 35°41' E 140°57'2020.2
2016-May-24 14:33N 35°59' E 141°05'2120.8
2016-May-24 13:34N 36°20' E 141°10'2120.6
2016-May-24 12:33N 36°40' E 141°16'2121.1
2016-May-24 11:34N 37°00' E 141°21'2121.1
2016-May-24 10:33N 37°21' E 141°27'  
2016-May-22 02:23N 36°38' E 141°04'1719.1
2016-May-22 01:30N 36°22' E 141°02'3819.2
2016-May-21 23:32N 35°44' E 140°57'1918.6
2016-May-21 22:32N 35°28' E 140°47'1919.2
2016-May-21 21:34N 35°12' E 140°33'2020.1
2016-May-21 20:33N 34°58' E 140°16'2019.9
2016-May-21 19:33N 34°47' E 139°56'2120.0
2016-May-21 18:31N 34°39' E 139°32'4920.2
2016-May-21 16:07N 34°29' E 138°35'26 1.4
2016-May-20 21:28N 34°32' E 139°06'1920.4
2016-May-20 20:33N 34°38' E 139°28'2120.5
2016-May-20 19:33N 34°47' E 139°51'2020.0
2016-May-20 18:33N 34°57' E 140°12'2019.1
2016-May-20 17:29N 35°09' E 140°32'2020.7
2016-May-20 16:31N 35°26' E 140°45'2121.4
2016-May-20 15:33N 35°43' E 140°59'2321.4
2016-May-20 14:30N 36°05' E 141°05'2720.7
2016-May-20 13:13N 36°31' E 141°10'1520.7
2016-May-20 12:29N 36°46' E 141°15'  

Dump ship's entire track history